Time;durP1;ratioP1;P1;durP2;ratioP2;P2;SDS_P1;SDS_P2;PMS_P1;PMS_P2;Temp;Humidity;BMP_temperature;BMP_pressure;BME280_temperature;BME280_humidity;BME280_pressure;Samples;Min_cycle;Max_cycle;Signal;HPM_P1;HPM_P2
2023/03/11 00:00:26;;;;;;;3.10;1.42;;;1.20;99.90;;;;;;4994824;28;92446;-76
2023/03/11 00:02:56;;;;;;;3.42;1.77;;;1.30;99.90;;;;;;4995264;28;93327;-76
2023/03/11 00:05:27;;;;;;;4.68;1.75;;;1.30;99.90;;;;;;4977370;28;95283;-76
2023/03/11 00:07:55;;;;;;;4.13;2.03;;;1.30;99.90;;;;;;4995633;28;92789;-76
2023/03/11 00:10:26;;;;;;;5.25;1.40;;;1.40;99.90;;;;;;4995376;28;92547;-77
2023/03/11 00:12:56;;;;;;;5.30;1.70;;;1.40;99.90;;;;;;4994880;28;93294;-79
2023/03/11 00:15:25;;;;;;;7.43;1.90;;;1.40;99.90;;;;;;4977166;28;95506;-79
2023/03/11 00:17:52;;;;;;;6.93;1.63;;;1.50;99.90;;;;;;4978004;28;92611;-79
2023/03/11 00:20:25;;;;;;;3.78;1.40;;;1.50;99.90;;;;;;4960984;28;97404;-76
2023/03/11 00:22:53;;;;;;;4.90;2.05;;;1.60;99.90;;;;;;4976503;28;94896;-79
2023/03/11 00:25:22;;;;;;;4.50;1.70;;;1.60;99.90;;;;;;4977225;28;97166;-79
2023/03/11 00:27:50;;;;;;;1.58;1.40;;;1.60;99.90;;;;;;4977175;28;92471;-77
2023/03/11 00:30:18;;;;;;;6.57;2.40;;;1.60;99.90;;;;;;4995231;28;92475;-77
2023/03/11 00:32:50;;;;;;;4.22;1.50;;;1.60;99.90;;;;;;4977110;28;93268;-77
2023/03/11 00:35:23;;;;;;;6.97;2.08;;;1.70;99.90;;;;;;4977130;28;95626;-77
2023/03/11 00:37:54;;;;;;;8.80;2.05;;;1.60;99.90;;;;;;4995194;28;92495;-77
2023/03/11 00:40:23;;;;;;;4.60;1.40;;;1.70;99.90;;;;;;4977836;28;92301;-77
2023/03/11 00:42:50;;;;;;;6.53;1.50;;;1.70;99.90;;;;;;4993321;28;96142;-77
2023/03/11 00:45:17;;;;;;;8.43;1.88;;;1.70;99.90;;;;;;4995043;28;92937;-77
2023/03/11 00:47:44;;;;;;;13.55;2.05;;;1.80;99.90;;;;;;4992109;28;94917;-77
2023/03/11 00:50:20;;;;;;;6.78;1.67;;;1.80;99.90;;;;;;4977430;28;92459;-77
2023/03/11 00:52:48;;;;;;;2.53;1.80;;;1.80;99.90;;;;;;4976421;28;95758;-77
2023/03/11 00:55:24;;;;;;;9.05;1.80;;;1.80;99.90;;;;;;4976628;28;95466;-77
2023/03/11 00:57:58;;;;;;;4.13;1.67;;;1.70;99.90;;;;;;4977187;28;92495;-77
2023/03/11 01:00:30;;;;;;;6.03;2.15;;;1.70;99.90;;;;;;4993292;28;92594;-77
2023/03/11 01:02:58;;;;;;;3.90;1.70;;;1.70;99.90;;;;;;4994681;28;93322;-77
2023/03/11 01:05:28;;;;;;;5.28;1.42;;;1.70;99.90;;;;;;4944934;28;93121;-77
2023/03/11 01:07:55;;;;;;;4.10;1.95;;;1.80;99.90;;;;;;4977089;28;92515;-77
2023/03/11 01:10:23;;;;;;;5.40;1.67;;;1.80;99.90;;;;;;4960535;28;92516;-77
2023/03/11 01:12:50;;;;;;;9.00;2.13;;;1.80;99.90;;;;;;4976864;28;98327;-77
2023/03/11 01:15:28;;;;;;;2.17;1.50;;;1.80;99.90;;;;;;4980211;28;95343;-77
2023/03/11 01:17:55;;;;;;;4.70;1.40;;;1.80;99.90;;;;;;4979873;28;92545;-77
2023/03/11 01:20:22;;;;;;;8.02;1.65;;;1.80;99.90;;;;;;4980058;28;92550;-77
2023/03/11 01:22:49;;;;;;;2.55;1.25;;;1.80;99.90;;;;;;4963392;28;96359;-77
2023/03/11 01:25:19;;;;;;;3.92;1.77;;;1.80;99.90;;;;;;4947454;28;95542;-77
2023/03/11 01:27:46;;;;;;;6.55;2.05;;;1.80;99.90;;;;;;4996371;28;92469;-77
2023/03/11 01:30:17;;;;;;;5.82;1.83;;;1.70;99.90;;;;;;4964427;28;91743;-77
2023/03/11 01:32:44;;;;;;;4.82;1.45;;;1.70;99.90;;;;;;4979528;28;95852;-77
2023/03/11 01:35:14;;;;;;;4.55;1.25;;;1.70;99.90;;;;;;4963364;28;95581;-77
2023/03/11 01:37:42;;;;;;;6.28;1.30;;;1.70;99.90;;;;;;4978626;28;94870;-77
2023/03/11 01:40:16;;;;;;;4.65;1.60;;;1.70;99.90;;;;;;4963950;28;92589;-77
2023/03/11 01:42:43;;;;;;;5.18;1.52;;;1.70;99.90;;;;;;4979558;28;96314;-77
2023/03/11 01:45:28;;;;;;;5.40;1.58;;;1.70;99.90;;;;;;4996191;28;95631;-77
2023/03/11 01:47:55;;;;;;;6.35;1.60;;;1.70;99.90;;;;;;4963325;28;92469;-77
2023/03/11 01:50:24;;;;;;;1.92;1.30;;;1.60;99.90;;;;;;4996374;28;92493;-77
2023/03/11 01:52:52;;;;;;;6.82;1.48;;;1.60;99.90;;;;;;4979065;28;95975;-77
2023/03/11 01:55:19;;;;;;;3.63;1.10;;;1.60;99.90;;;;;;4963636;28;93154;-77
2023/03/11 01:57:47;;;;;;;8.00;1.52;;;1.60;99.90;;;;;;4979393;28;92527;-77
2023/03/11 02:00:15;;;;;;;4.70;1.20;;;1.60;99.90;;;;;;4979781;28;92413;-77
2023/03/11 02:02:49;;;;;;;2.83;1.27;;;1.60;99.90;;;;;;4945498;28;98296;-80
2023/03/11 02:05:20;;;;;;;4.90;1.60;;;1.60;99.90;;;;;;4947773;28;97351;-80
2023/03/11 02:07:49;;;;;;;3.85;1.30;;;1.60;99.90;;;;;;4979327;28;92450;-80
2023/03/11 02:10:18;;;;;;;3.42;1.35;;;1.50;99.90;;;;;;4979466;28;92511;-77
2023/03/11 02:12:48;;;;;;;3.13;1.20;;;1.40;99.90;;;;;;4978683;28;95687;-77
2023/03/11 02:15:23;;;;;;;3.42;1.10;;;1.40;99.90;;;;;;4996108;28;92582;-80
2023/03/11 02:17:51;;;;;;;5.45;1.33;;;1.50;99.90;;;;;;4963092;28;92815;-79
2023/03/11 02:20:32;;;;;;;3.85;1.30;;;1.50;99.90;;;;;;4947317;28;91846;-79
2023/03/11 02:23:00;;;;;;;9.93;1.20;;;1.50;99.90;;;;;;4978426;28;95631;-80
2023/03/11 02:25:33;;;;;;;4.75;1.45;;;1.50;99.90;;;;;;4962814;28;95381;-80
2023/03/11 02:28:05;;;;;;;5.50;1.38;;;1.50;99.90;;;;;;4994554;28;94920;-80
2023/03/11 02:30:33;;;;;;;2.50;1.00;;;1.50;99.90;;;;;;4979116;28;92486;-79
2023/03/11 02:33:01;;;;;;;6.05;1.33;;;1.40;99.90;;;;;;4962623;28;95419;-79
2023/03/11 02:35:30;;;;;;;6.43;1.73;;;1.40;99.90;;;;;;4946455;28;95318;-80
2023/03/11 02:37:58;;;;;;;1.77;1.05;;;1.30;99.90;;;;;;4962915;28;92494;-80
2023/03/11 02:40:48;;;;;;;3.05;1.23;;;1.20;99.90;;;;;;4978809;28;92525;-80
2023/03/11 02:43:23;;;;;;;1.80;0.93;;;1.20;99.90;;;;;;4978958;28;95594;-80
2023/03/11 02:45:50;;;;;;;2.53;1.10;;;1.10;99.90;;;;;;4963244;28;93058;-80
2023/03/11 02:48:20;;;;;;;5.22;1.45;;;1.10;99.90;;;;;;4979025;28;93026;-80
2023/03/11 02:50:47;;;;;;;3.13;1.25;;;1.10;99.90;;;;;;4978551;28;92511;-80
2023/03/11 02:53:17;;;;;;;3.22;1.20;;;1.10;99.90;;;;;;4961381;28;97821;-80
2023/03/11 02:55:44;;;;;;;2.42;0.95;;;1.10;99.90;;;;;;4945770;28;98009;-80
2023/03/11 02:58:10;;;;;;;4.82;1.40;;;1.20;99.90;;;;;;4946315;28;92817;-80
2023/03/11 03:00:38;;;;;;;2.40;1.05;;;1.20;99.90;;;;;;4946691;28;92683;-80
2023/03/11 03:03:07;;;;;;;2.70;1.05;;;1.30;99.90;;;;;;4962055;28;94620;-80
2023/03/11 03:05:35;;;;;;;8.02;1.40;;;1.20;99.90;;;;;;4962596;28;95323;-80
2023/03/11 03:08:02;;;;;;;4.07;1.00;;;1.30;99.90;;;;;;4995171;28;92494;-80
2023/03/11 03:10:29;;;;;;;7.57;1.50;;;1.20;99.90;;;;;;4978952;28;91842;-80
2023/03/11 03:12:57;;;;;;;3.53;1.10;;;1.20;99.90;;;;;;4961387;28;95458;-80
2023/03/11 03:15:24;;;;;;;4.07;1.40;;;1.20;99.90;;;;;;4961991;28;96003;-80
2023/03/11 03:17:52;;;;;;;3.97;1.25;;;1.20;99.90;;;;;;4944854;28;94874;-80
2023/03/11 03:20:21;;;;;;;2.53;1.00;;;1.20;99.90;;;;;;4946010;28;92626;-78
2023/03/11 03:22:52;;;;;;;1.27;0.90;;;1.20;99.90;;;;;;4962384;28;95091;-80
2023/03/11 03:25:23;;;;;;;2.90;1.00;;;1.10;99.90;;;;;;4978128;28;94176;-80
2023/03/11 03:27:51;;;;;;;2.45;1.02;;;1.10;99.90;;;;;;4946139;28;92992;-80
2023/03/11 03:30:19;;;;;;;1.27;0.90;;;1.00;99.90;;;;;;4945943;28;92581;-80
2023/03/11 03:32:46;;;;;;;8.50;1.52;;;1.00;99.90;;;;;;4978063;28;94249;-80
2023/03/11 03:35:16;;;;;;;3.95;1.02;;;0.90;99.90;;;;;;4945339;28;95624;-81
2023/03/11 03:38:00;;;;;;;2.42;0.98;;;0.80;99.90;;;;;;4950425;28;92587;-81
2023/03/11 03:40:28;;;;;;;4.60;1.15;;;0.70;99.90;;;;;;4945579;28;92487;-81
2023/03/11 03:42:57;;;;;;;4.82;1.52;;;0.70;99.90;;;;;;4976249;28;98123;-80
2023/03/11 03:45:24;;;;;;;2.83;1.15;;;0.60;99.90;;;;;;4962006;28;95340;-80
2023/03/11 03:47:52;;;;;;;2.17;1.02;;;0.50;99.90;;;;;;4961594;28;93047;-81
2023/03/11 03:50:21;;;;;;;2.90;1.00;;;0.50;99.90;;;;;;4977795;28;92449;-81
2023/03/11 03:52:50;;;;;;;5.13;1.13;;;0.40;99.90;;;;;;4961574;28;95707;-81
2023/03/11 03:55:18;;;;;;;3.97;1.13;;;0.40;99.90;;;;;;4977619;28;92855;-81
2023/03/11 03:57:45;;;;;;;2.60;1.13;;;0.40;99.90;;;;;;4977943;28;92449;-81
2023/03/11 04:00:14;;;;;;;6.38;1.10;;;0.30;99.90;;;;;;4945759;28;91777;-81
2023/03/11 04:02:43;;;;;;;4.80;1.23;;;0.30;99.90;;;;;;4961659;28;96183;-81
2023/03/11 04:05:20;;;;;;;4.40;1.58;;;0.20;99.90;;;;;;4977509;28;95366;-81
2023/03/11 04:07:47;;;;;;;3.20;1.30;;;0.20;99.90;;;;;;4960281;28;95000;-81
2023/03/11 04:10:14;;;;;;;4.18;1.10;;;0.10;99.90;;;;;;4995616;28;92712;-81
2023/03/11 04:12:42;;;;;;;3.50;1.40;;;0.00;99.90;;;;;;4944753;28;95594;-81
2023/03/11 04:15:09;;;;;;;4.40;1.20;;;0.00;99.90;;;;;;4977090;28;95712;-81
2023/03/11 04:17:37;;;;;;;3.10;1.05;;;0.00;99.90;;;;;;4961629;28;92458;-81
2023/03/11 04:20:07;;;;;;;2.15;1.10;;;-0.10;99.90;;;;;;4961225;28;92560;-81
2023/03/11 04:22:34;;;;;;;2.42;1.15;;;-0.10;99.90;;;;;;4977345;28;95725;-82
2023/03/11 04:25:01;;;;;;;5.25;1.40;;;-0.20;99.90;;;;;;4945041;28;95293;-82
2023/03/11 04:27:30;;;;;;;6.47;1.50;;;-0.20;99.90;;;;;;4945808;28;92494;-82
2023/03/11 04:29:57;;;;;;;3.42;1.10;;;-0.20;99.90;;;;;;4977255;28;92565;-83
2023/03/11 04:32:24;;;;;;;4.20;1.60;;;-0.20;99.90;;;;;;4976052;28;98182;-83
2023/03/11 04:34:51;;;;;;;1.40;0.93;;;-0.20;99.90;;;;;;4944788;28;98134;-83
2023/03/11 04:37:18;;;;;;;4.05;1.13;;;-0.20;99.90;;;;;;4961006;28;92384;-83
2023/03/11 04:39:45;;;;;;;5.10;1.70;;;-0.20;99.90;;;;;;4960734;28;92509;-83
2023/03/11 04:42:12;;;;;;;4.50;1.10;;;-0.10;99.90;;;;;;4944694;28;95770;-83
2023/03/11 04:44:42;;;;;;;4.28;1.33;;;-0.10;99.90;;;;;;4977089;28;95481;-83
2023/03/11 04:47:09;;;;;;;5.75;1.15;;;-0.10;99.90;;;;;;4947654;28;92449;-83
2023/03/11 04:49:36;;;;;;;3.88;1.30;;;-0.10;99.90;;;;;;4981098;28;91864;-83
2023/03/11 04:52:04;;;;;;;3.72;1.20;;;-0.20;99.90;;;;;;4948084;28;95511;-82
2023/03/11 04:54:31;;;;;;;5.45;1.58;;;-0.20;99.90;;;;;;4964173;28;94502;-82
2023/03/11 04:56:57;;;;;;;3.28;1.10;;;-0.30;99.90;;;;;;4962849;28;94971;-82
2023/03/11 04:59:25;;;;;;;3.45;1.10;;;-0.30;99.90;;;;;;4997113;28;92490;-82
2023/03/11 05:01:52;;;;;;;4.35;1.40;;;-0.30;99.90;;;;;;4948026;28;95602;-82
2023/03/11 05:04:19;;;;;;;5.35;1.30;;;-0.40;99.90;;;;;;4947799;28;95806;-82
2023/03/11 05:06:49;;;;;;;4.15;1.40;;;-0.40;99.90;;;;;;4931937;28;92618;-82
2023/03/11 05:09:17;;;;;;;4.72;1.30;;;-0.40;99.90;;;;;;4949045;28;92576;-82
2023/03/11 05:11:44;;;;;;;3.20;1.20;;;-0.50;99.90;;;;;;4979954;28;95428;-82
2023/03/11 05:14:13;;;;;;;5.72;1.73;;;-0.60;99.90;;;;;;4948280;28;93989;-82
2023/03/11 05:16:40;;;;;;;2.00;1.30;;;-0.60;99.90;;;;;;4980292;28;92509;-82
2023/03/11 05:21:54;;;;;;;9.02;2.05;;;-0.70;99.90;;;;;;4978863;28;97900;-82
2023/03/11 05:24:26;;;;;;;3.95;1.60;;;-0.70;99.90;;;;;;4948085;28;98114;-83
2023/03/11 05:26:54;;;;;;;3.42;1.50;;;-0.70;99.90;;;;;;4980016;28;92689;-83
2023/03/11 05:29:21;;;;;;;4.55;1.73;;;-0.70;99.90;;;;;;4980047;28;93591;-83
2023/03/11 05:31:49;;;;;;;5.55;1.83;;;-0.80;99.90;;;;;;4979757;28;95644;-82
2023/03/11 05:34:17;;;;;;;3.25;1.50;;;-0.80;99.90;;;;;;4979288;28;94480;-82
2023/03/11 05:36:44;;;;;;;2.22;1.45;;;-0.80;99.90;;;;;;4963692;28;92601;-82
2023/03/11 05:39:12;;;;;;;1.73;1.40;;;-0.80;99.90;;;;;;4964492;28;91793;-82
2023/03/11 05:41:40;;;;;;;9.52;1.88;;;-0.80;99.90;;;;;;4963985;28;93405;-82
2023/03/11 05:44:08;;;;;;;5.18;1.55;;;-0.90;99.90;;;;;;4963378;28;95273;-82
2023/03/11 05:46:35;;;;;;;2.88;1.60;;;-0.90;99.90;;;;;;4978531;28;94955;-82
2023/03/11 05:49:04;;;;;;;6.20;1.50;;;-0.80;99.90;;;;;;4947990;28;92638;-82
2023/03/11 05:51:32;;;;;;;4.18;1.30;;;-0.80;99.90;;;;;;4963247;28;94981;-82
2023/03/11 05:54:00;;;;;;;5.93;2.28;;;-0.80;99.90;;;;;;4947185;28;95520;-82
2023/03/11 05:56:35;;;;;;;3.80;1.40;;;-0.90;99.90;;;;;;4964466;28;92567;-82
2023/03/11 05:59:03;;;;;;;2.85;1.30;;;-1.00;99.90;;;;;;4962562;28;92524;-82
2023/03/11 06:01:35;;;;;;;2.75;1.63;;;-1.00;99.90;;;;;;4964555;28;93145;-82
2023/03/11 06:04:04;;;;;;;3.00;1.63;;;-1.00;99.90;;;;;;4947538;28;95571;-81
2023/03/11 06:06:32;;;;;;;3.25;1.55;;;-1.10;99.90;;;;;;4963890;28;92412;-81
2023/03/11 06:09:00;;;;;;;5.35;1.65;;;-1.10;99.90;;;;;;4963255;28;92580;-82
2023/03/11 06:11:29;;;;;;;6.07;1.65;;;-1.10;99.90;;;;;;4961517;28;98255;-82
2023/03/11 06:13:57;;;;;;;5.53;1.67;;;-1.10;99.90;;;;;;4962220;28;99285;-82
2023/03/11 06:16:27;;;;;;;3.95;1.50;;;-1.10;99.90;;;;;;4979342;28;92673;-82
2023/03/11 06:18:59;;;;;;;2.08;1.80;;;-1.00;99.90;;;;;;4948130;28;92610;-82
2023/03/11 06:21:36;;;;;;;4.05;1.50;;;-1.00;99.90;;;;;;4964408;28;93375;-82
2023/03/11 06:24:04;;;;;;;2.20;1.58;;;-1.00;99.90;;;;;;4978834;28;93820;-82
2023/03/11 06:26:32;;;;;;;1.98;1.35;;;-0.90;99.90;;;;;;4962855;28;92629;-83
2023/03/11 06:29:00;;;;;;;2.47;1.05;;;-0.80;99.90;;;;;;4963739;28;91772;-83
2023/03/11 06:31:29;;;;;;;5.28;1.20;;;-0.50;99.90;;;;;;4962520;28;95563;-84
2023/03/11 06:34:04;;;;;;;3.65;1.00;;;-0.30;99.90;;;;;;4978919;28;95328;-84
2023/03/11 06:36:32;;;;;;;2.95;1.40;;;-0.10;99.90;;;;;;4962205;28;94921;-84
2023/03/11 06:39:00;;;;;;;1.70;1.20;;;0.00;99.90;;;;;;4962995;28;92635;-84
2023/03/11 06:41:28;;;;;;;2.53;1.55;;;0.10;99.90;;;;;;4946369;28;95941;-83
2023/03/11 06:43:58;;;;;;;3.50;1.30;;;0.30;99.90;;;;;;4979050;28;95241;-83
2023/03/11 06:46:27;;;;;;;1.75;1.27;;;0.40;99.90;;;;;;4962963;28;92750;-84
2023/03/11 06:48:56;;;;;;;3.08;1.50;;;0.50;99.90;;;;;;4962714;28;92383;-83
2023/03/11 06:51:24;;;;;;;4.80;1.58;;;0.60;99.90;;;;;;4962119;28;96356;-83
2023/03/11 06:53:52;;;;;;;2.58;1.30;;;0.60;99.90;;;;;;4978971;28;95317;-83
2023/03/11 06:56:22;;;;;;;4.97;1.20;;;0.60;99.90;;;;;;4962398;28;92491;-84
2023/03/11 06:58:55;;;;;;;3.08;1.38;;;0.70;99.90;;;;;;4964261;28;92510;-84
2023/03/11 07:01:27;;;;;;;2.75;1.55;;;0.80;99.90;;;;;;4960856;28;98523;-84
2023/03/11 07:03:56;;;;;;;2.88;1.20;;;0.80;99.90;;;;;;4979150;28;95396;-84
2023/03/11 07:06:26;;;;;;;4.88;1.20;;;0.90;99.90;;;;;;4946631;28;92625;-84
2023/03/11 07:09:01;;;;;;;4.53;1.27;;;1.00;99.90;;;;;;4978739;28;92587;-84
2023/03/11 07:11:30;;;;;;;1.85;1.25;;;1.10;99.90;;;;;;4977978;28;95764;-84
2023/03/11 07:14:05;;;;;;;4.15;1.42;;;1.20;99.90;;;;;;4962903;28;95831;-84
2023/03/11 07:16:38;;;;;;;1.65;1.30;;;1.40;99.90;;;;;;4962297;28;92546;-84
2023/03/11 07:19:12;;;;;;;3.28;1.10;;;1.60;99.90;;;;;;4978590;28;91821;-84
2023/03/11 07:21:42;;;;;;;8.40;2.13;;;1.80;99.90;;;;;;4962140;28;96690;-84
2023/03/11 07:24:12;;;;;;;2.33;1.20;;;1.90;99.90;;;;;;4978382;28;93366;-84
2023/03/11 07:26:40;;;;;;;5.82;1.40;;;2.00;99.90;;;;;;4977454;28;95017;-84
2023/03/11 07:29:10;;;;;;;5.32;1.90;;;2.10;99.90;;;;;;4931380;28;92601;-84
2023/03/11 07:31:38;;;;;;;3.53;1.70;;;2.10;99.90;;;;;;4945425;28;96249;-83
2023/03/11 07:34:10;;;;;;;1.75;1.65;;;2.20;99.90;;;;;;4945751;28;95534;-84
2023/03/11 07:36:41;;;;;;;2.15;1.50;;;2.30;99.90;;;;;;4996069;28;93069;-83
2023/03/11 07:39:13;;;;;;;1.77;1.30;;;2.60;99.90;;;;;;4978016;28;92544;-83
2023/03/11 07:41:42;;;;;;;6.65;2.03;;;2.70;99.90;;;;;;4978002;28;93621;-83
2023/03/11 07:44:13;;;;;;;4.15;1.95;;;2.70;99.90;;;;;;4978112;28;95993;-83
2023/03/11 07:46:41;;;;;;;4.10;2.00;;;2.80;99.90;;;;;;4961845;28;92941;-83
2023/03/11 07:49:09;;;;;;;4.63;1.65;;;2.90;99.90;;;;;;4977833;28;92664;-82
2023/03/11 07:51:39;;;;;;;5.43;1.70;;;3.00;99.90;;;;;;4976213;28;95609;-81
2023/03/11 07:54:07;;;;;;;4.55;3.78;;;3.10;99.90;;;;;;4961753;28;98926;-81
2023/03/11 07:56:35;;;;;;;6.85;6.40;;;3.10;99.90;;;;;;4961372;28;94368;-80
2023/03/11 07:59:04;;;;;;;5.15;4.82;;;3.30;99.90;;;;;;4961395;28;92547;-80
2023/03/11 08:01:35;;;;;;;14.18;13.25;;;3.50;99.90;;;;;;4977532;28;94453;-80
2023/03/11 08:04:05;;;;;;;11.07;10.52;;;3.80;99.90;;;;;;4961023;28;96270;-80
2023/03/11 08:06:33;;;;;;;14.15;13.55;;;4.30;99.90;;;;;;4960828;28;92396;-80
2023/03/11 08:09:03;;;;;;;17.67;16.80;;;4.70;99.90;;;;;;4995202;28;91826;-80
2023/03/11 08:11:31;;;;;;;15.60;14.98;;;5.20;99.90;;;;;;4993031;28;94149;-80
2023/03/11 08:13:58;;;;;;;15.02;14.38;;;5.70;99.90;;;;;;4992930;28;94995;-80
2023/03/11 08:16:26;;;;;;;11.82;11.27;;;6.20;99.90;;;;;;4959469;28;94930;-83
2023/03/11 08:18:53;;;;;;;12.90;12.15;;;6.70;99.90;;;;;;4994906;28;92364;-81
2023/03/11 08:21:25;;;;;;;11.90;11.20;;;7.10;99.90;;;;;;4992841;28;96384;-80
2023/03/11 08:23:57;;;;;;;7.75;7.13;;;7.50;99.90;;;;;;4976967;28;94116;-80
2023/03/11 08:26:24;;;;;;;6.40;6.00;;;7.80;99.90;;;;;;4977316;28;92527;-80
2023/03/11 08:28:51;;;;;;;4.47;3.63;;;8.00;99.90;;;;;;4993894;28;92557;-79
2023/03/11 08:31:25;;;;;;;2.47;1.20;;;8.10;99.90;;;;;;4960950;28;96334;-79
2023/03/11 08:33:56;;;;;;;3.45;1.13;;;8.30;99.90;;;;;;4978120;28;92941;-79
2023/03/11 08:36:23;;;;;;;4.18;1.50;;;8.30;99.90;;;;;;4977604;28;92676;-80
2023/03/11 08:38:50;;;;;;;4.40;1.27;;;8.20;99.90;;;;;;4977231;28;92596;-80
2023/03/11 08:41:18;;;;;;;3.20;1.35;;;8.10;99.90;;;;;;4975829;28;97086;-80
2023/03/11 08:43:45;;;;;;;3.40;1.70;;;7.80;99.90;;;;;;4960697;28;96421;-81
2023/03/11 08:50:55;;;;;;;4.07;1.30;;;7.10;99.90;;;;;;4992256;28;93148;-81
2023/03/11 08:53:23;;;;;;;5.57;1.42;;;6.30;99.90;;;;;;4976228;28;96488;-81
2023/03/11 08:55:51;;;;;;;6.80;2.85;;;6.00;99.90;;;;;;4977024;28;93035;-81
2023/03/11 08:58:20;;;;;;;1.50;1.00;;;5.70;99.90;;;;;;4949842;28;92465;-81
2023/03/11 09:00:48;;;;;;;1.90;1.20;;;5.50;99.90;;;;;;4941883;28;91703;-80
2023/03/11 09:03:44;;;;;;;1.40;1.17;;;5.30;99.90;;;;;;4957014;28;95628;-80
2023/03/11 09:06:20;;;;;;;2.55;1.30;;;5.20;99.90;;;;;;4937497;28;95648;-80
2023/03/11 09:08:48;;;;;;;4.60;1.80;;;4.90;99.90;;;;;;4940355;28;94927;-80
2023/03/11 09:11:17;;;;;;;3.83;1.30;;;4.90;99.90;;;;;;4957100;28;92579;-80
2023/03/11 09:13:45;;;;;;;3.20;1.40;;;4.80;99.90;;;;;;4941027;28;94840;-80
2023/03/11 09:16:19;;;;;;;3.10;1.30;;;4.80;99.90;;;;;;4957233;28;96051;-80
2023/03/11 09:18:52;;;;;;;3.28;1.23;;;4.80;99.90;;;;;;4973606;28;92500;-80
2023/03/11 09:21:26;;;;;;;3.80;1.70;;;4.70;99.90;;;;;;4974762;28;92462;-80
2023/03/11 09:23:53;;;;;;;3.83;1.20;;;4.70;99.90;;;;;;4956981;28;96506;-80
2023/03/11 09:26:22;;;;;;;1.50;1.38;;;4.70;99.90;;;;;;4941080;28;95740;-80
2023/03/11 09:29:19;;;;;;;3.80;1.45;;;4.70;99.90;;;;;;4940989;28;92461;-80
2023/03/11 09:31:57;;;;;;;3.38;1.40;;;4.70;99.90;;;;;;4941485;28;93005;-80
2023/03/11 09:34:25;;;;;;;2.83;1.20;;;4.70;99.90;;;;;;4958197;28;98372;-81
2023/03/11 09:36:52;;;;;;;4.35;1.30;;;4.80;99.90;;;;;;4943628;28;96820;-81
2023/03/11 09:39:19;;;;;;;4.15;1.40;;;4.80;99.90;;;;;;4944051;28;92509;-81
2023/03/11 09:42:15;;;;;;;7.82;1.65;;;4.80;99.90;;;;;;4960405;28;92542;-81
2023/03/11 09:44:51;;;;;;;3.40;2.15;;;4.90;99.90;;;;;;4960032;28;95881;-81
2023/03/11 09:47:43;;;;;;;2.80;1.30;;;5.00;99.90;;;;;;4959353;28;95742;-81
2023/03/11 09:50:37;;;;;;;4.70;1.60;;;5.10;99.90;;;;;;4960126;28;92387;-81
2023/03/11 09:53:20;;;;;;;4.63;1.70;;;5.20;99.90;;;;;;4944422;28;92023;-81
2023/03/11 09:55:56;;;;;;;4.10;1.40;;;5.20;99.90;;;;;;4959757;28;97405;-81
2023/03/11 09:58:43;;;;;;;4.15;1.05;;;5.20;99.90;;;;;;4943345;28;94339;-81
2023/03/11 10:01:38;;;;;;;3.17;1.48;;;5.30;99.90;;;;;;4958570;28;94930;-81
2023/03/11 10:04:39;;;;;;;2.45;1.35;;;5.30;99.90;;;;;;4960087;28;92581;-81
2023/03/11 10:07:23;;;;;;;2.67;1.55;;;5.30;99.90;;;;;;4908352;28;95576;-81
2023/03/11 10:09:58;;;;;;;3.75;1.35;;;5.40;99.90;;;;;;4961459;28;94177;-81
2023/03/11 10:12:44;;;;;;;4.05;1.55;;;5.40;99.90;;;;;;4942917;28;92601;-81
2023/03/11 10:15:29;;;;;;;4.25;1.75;;;5.50;99.90;;;;;;4959599;28;92648;-81
2023/03/11 10:18:15;;;;;;;4.60;1.70;;;5.50;99.90;;;;;;4959773;28;94227;-81
2023/03/11 10:21:32;;;;;;;6.60;1.42;;;5.50;99.90;;;;;;4959552;28;95735;-81
2023/03/11 10:24:28;;;;;;;4.68;1.50;;;5.60;99.90;;;;;;4881372;28;92563;-80
2023/03/11 10:27:00;;;;;;;4.30;1.58;;;5.70;99.90;;;;;;4975187;28;92994;-80
2023/03/11 10:30:01;;;;;;;3.47;1.30;;;5.70;99.90;;;;;;4975340;28;94871;-80
2023/03/11 10:32:34;;;;;;;4.78;1.50;;;5.80;99.90;;;;;;4963171;28;95469;-80
2023/03/11 10:35:41;;;;;;;2.78;1.40;;;5.80;99.90;;;;;;4943309;28;92389;-81
2023/03/11 10:38:20;;;;;;;2.88;1.45;;;5.90;99.90;;;;;;4920865;28;93923;-81
2023/03/11 10:40:52;;;;;;;4.85;1.33;;;5.90;99.90;;;;;;4959456;28;94012;-80
2023/03/11 10:43:40;;;;;;;2.67;1.50;;;6.00;99.90;;;;;;4942695;28;95711;-81
2023/03/11 10:46:27;;;;;;;2.63;1.55;;;6.10;99.90;;;;;;4959175;28;92526;-81
2023/03/11 10:48:55;;;;;;;5.35;1.40;;;6.10;99.90;;;;;;4960063;28;91815;-81
2023/03/11 10:51:26;;;;;;;6.28;1.50;;;6.20;99.90;;;;;;4959134;28;92904;-81
2023/03/11 10:53:59;;;;;;;3.88;1.73;;;6.30;99.90;;;;;;4958941;28;94712;-81
2023/03/11 10:56:34;;;;;;;2.58;1.60;;;6.40;99.90;;;;;;4958175;28;94946;-81
2023/03/11 10:59:04;;;;;;;4.90;2.00;;;6.50;99.90;;;;;;4975082;28;92517;-82
2023/03/11 11:01:32;;;;;;;4.22;1.73;;;6.50;99.90;;;;;;4958811;28;94700;-82
2023/03/11 11:04:01;;;;;;;3.13;1.50;;;6.60;99.90;;;;;;4942485;28;95401;-81
2023/03/11 11:06:34;;;;;;;5.80;1.60;;;6.70;99.90;;;;;;4943014;28;92566;-81
2023/03/11 11:09:19;;;;;;;5.28;1.30;;;6.80;99.90;;;;;;4959029;28;92851;-82
2023/03/11 11:12:11;;;;;;;3.35;1.50;;;6.90;99.90;;;;;;4958646;28;96681;-81
2023/03/11 11:14:50;;;;;;;4.93;1.50;;;6.90;99.90;;;;;;4975014;28;96135;-82
2023/03/11 11:17:32;;;;;;;3.25;1.73;;;6.90;99.90;;;;;;4959014;28;92515;-82
2023/03/11 11:20:11;;;;;;;2.45;1.67;;;7.00;99.90;;;;;;4942585;28;92599;-82
2023/03/11 11:22:51;;;;;;;4.13;1.63;;;7.10;99.90;;;;;;4942166;28;98236;-83
2023/03/11 11:25:27;;;;;;;6.25;1.73;;;7.20;99.90;;;;;;4958397;28;97366;-83
2023/03/11 11:27:58;;;;;;;2.78;1.70;;;7.20;99.90;;;;;;4974717;28;92612;-83
2023/03/11 11:30:26;;;;;;;3.95;1.60;;;7.30;99.90;;;;;;4958819;28;92431;-83
2023/03/11 11:32:54;;;;;;;4.22;1.55;;;7.30;99.90;;;;;;4958251;28;96167;-83
2023/03/11 11:35:23;;;;;;;3.47;1.70;;;7.40;99.90;;;;;;4958589;28;94303;-84
2023/03/11 11:38:00;;;;;;;4.25;1.60;;;7.40;99.90;;;;;;4958247;28;92511;-84
2023/03/11 11:40:30;;;;;;;4.15;1.42;;;7.50;99.90;;;;;;4976755;28;91693;-84
2023/03/11 11:43:00;;;;;;;3.25;1.63;;;7.60;99.90;;;;;;4942271;28;96665;-83
2023/03/11 11:45:33;;;;;;;5.20;1.50;;;7.50;99.90;;;;;;4942165;28;95900;-83
2023/03/11 11:48:25;;;;;;;7.70;1.88;;;7.60;99.90;;;;;;4958576;28;94886;-83
2023/03/11 11:50:56;;;;;;;1.65;1.27;;;7.60;99.90;;;;;;4958174;28;92518;-83
2023/03/11 11:53:27;;;;;;;3.38;1.50;;;7.60;99.90;;;;;;4958238;28;94091;-83
2023/03/11 11:55:55;;;;;;;3.47;1.40;;;7.60;99.90;;;;;;4974681;28;93891;-82
2023/03/11 11:58:22;;;;;;;4.57;1.45;;;7.60;99.90;;;;;;4958211;28;92440;-83
2023/03/11 12:00:55;;;;;;;5.72;1.77;;;7.60;99.90;;;;;;4957987;28;92574;-83
2023/03/11 12:03:34;;;;;;;2.90;1.40;;;7.70;99.90;;;;;;4957752;28;95714;-81
2023/03/11 12:06:13;;;;;;;2.40;1.73;;;7.70;99.90;;;;;;4976227;28;93193;-81
2023/03/11 12:08:46;;;;;;;5.47;2.08;;;7.70;99.90;;;;;;4957678;28;92501;-81
2023/03/11 12:11:23;;;;;;;3.88;1.27;;;7.70;99.90;;;;;;4957987;28;92779;-82
2023/03/11 12:14:04;;;;;;;2.95;1.73;;;7.80;99.90;;;;;;4956101;28;97983;-81
2023/03/11 12:17:00;;;;;;;3.33;1.58;;;7.80;99.90;;;;;;4975385;28;97322;-81
2023/03/11 12:19:42;;;;;;;3.15;1.63;;;7.80;99.90;;;;;;4974215;28;93836;-82
2023/03/11 12:22:41;;;;;;;3.03;1.65;;;7.90;99.90;;;;;;4975486;28;92488;-82
2023/03/11 12:25:27;;;;;;;4.60;1.42;;;7.90;99.90;;;;;;4957582;28;96350;-82
2023/03/11 12:28:12;;;;;;;4.00;1.42;;;7.90;99.90;;;;;;4957557;28;95756;-82
2023/03/11 12:30:49;;;;;;;4.38;1.27;;;7.90;99.90;;;;;;4957292;28;92647;-82
2023/03/11 12:33:18;;;;;;;3.20;1.13;;;7.90;99.90;;;;;;4958101;28;91964;-83
2023/03/11 12:35:55;;;;;;;3.22;1.15;;;8.00;99.90;;;;;;4973725;28;95669;-83
2023/03/11 12:38:35;;;;;;;3.33;1.55;;;8.00;99.90;;;;;;4941268;28;95782;-83
2023/03/11 12:41:07;;;;;;;6.00;1.50;;;8.10;99.90;;;;;;4956431;28;94807;-83
2023/03/11 12:43:34;;;;;;;2.17;1.10;;;8.10;99.90;;;;;;4957721;28;92603;-82
2023/03/11 12:46:16;;;;;;;5.43;1.17;;;8.10;99.90;;;;;;4957568;28;93309;-82
2023/03/11 12:49:12;;;;;;;1.25;0.85;;;8.20;99.90;;;;;;4957473;28;94382;-82
2023/03/11 12:51:40;;;;;;;1.95;0.93;;;8.10;99.90;;;;;;4942193;28;93098;-82
2023/03/11 12:54:29;;;;;;;2.15;1.08;;;8.00;99.90;;;;;;4957540;28;92507;-82
2023/03/11 12:57:10;;;;;;;4.50;1.10;;;8.10;99.90;;;;;;4975078;28;93259;-82
2023/03/11 12:59:40;;;;;;;3.03;1.15;;;8.10;99.90;;;;;;4957844;28;92959;-82
2023/03/11 13:02:35;;;;;;;1.40;1.00;;;8.10;99.90;;;;;;4975252;28;93063;-82
2023/03/11 13:05:28;;;;;;;2.25;1.27;;;8.10;99.90;;;;;;4956754;28;92595;-82
2023/03/11 13:08:09;;;;;;;4.53;1.00;;;8.10;99.90;;;;;;4958190;28;96054;-82
2023/03/11 13:10:39;;;;;;;4.65;0.98;;;8.10;99.90;;;;;;4960647;28;98059;-82
2023/03/11 13:13:39;;;;;;;4.40;1.05;;;8.10;99.90;;;;;;4960330;28;92965;-82
2023/03/11 13:16:13;;;;;;;6.43;0.98;;;8.20;99.90;;;;;;4960391;28;93101;-82
2023/03/11 13:18:42;;;;;;;1.05;0.73;;;8.20;99.90;;;;;;4960028;28;95858;-82
2023/03/11 13:21:33;;;;;;;3.25;1.10;;;8.20;99.90;;;;;;4944497;28;95404;-82
2023/03/11 13:24:28;;;;;;;7.13;1.15;;;8.20;99.90;;;;;;4977969;28;92425;-82
2023/03/11 13:26:58;;;;;;;7.55;1.70;;;8.30;99.90;;;;;;4953447;28;91824;-83
2023/03/11 13:29:30;;;;;;;5.15;1.35;;;8.20;99.90;;;;;;4960124;28;96209;-83